Terminal Aerodrome Forecast
Issued by NWS

Home | Current Version | Previous Version | Text Only | Print | Product List | Glossary On
Versions: 1 2 3 4 5 6 7 8 9 10 11 12 13 14
000
FTUS43 KGLD 221100
TAFMCK
TAF
KMCK 221139Z 2212/2312 16006KT P6SM FEW150
     FM221500 17015G25KT P6SM SCT120
     FM221800 16021G32KT P6SM SCT100
     FM230300 15016G28KT P6SM VCTS SCT090CB BKN150
     FM230900 16020G30KT P6SM SCT100 BKN200=

USA.gov is the U.S. government's official web portal to all federal, state and local government web resources and services.